Airfield :
LOGIN :

Register | Disclaimer

   EN    FR    IT 

 










Legend :    VFR   Marginal VFR   IFR   Intensive IFR   Very Intensive IFR
Visi :
Ceiling :
>= 8 km
>= 3000ft
5 to 8 km
1000 to 3000 ft
1500m to 5 km
500 to 1000 ft
800 to 1500m
200 to 500 ft
< 800m
< 200 ft
Symbols :   Thunderstorms  Fog  Heavy snow  Heavy precipitations  Wind > 20 kt
SIGMETs :     Misc.  Thunderstorms  Icing  Turbulence  Mountain Waves  Volcanic Ashes







- Airport Elevation : 510 ft


LJCE - Cerklje

CURRENT METAR :
  • 151930Z VRB01KT CAVOK 18/14 Q1013

EXPIRED METARs :
  • 151900Z VRB01KT CAVOK 20/15 Q1013
  • 151830Z 07002KT CAVOK 21/15 Q1013
  • 151800Z 06002KT CAVOK 22/14 Q1013
  • 151730Z AUTO 07003KT 9999 NSC 23/13 Q1013
  • 151700Z AUTO 06004KT 9999 NCD 23/12 Q1013

TAF TAF LJCE
Valid from the 15 at 18:00 until the 16 at 03:00 UTC


151700Z 1518/1603 07005KT 9999 FEW040
BECMG 1518/1519 CAVOK
No reported NOTAMs for that airfield.



MET'MAP, your aeronautical weather chart ! - Copyright ORBIFLY December 2007 - Disclaimer

ORBIFLY MET'MAP TEAM :

Programming & Development : Alexandra Zaïnal
Concept & Development : Baudouin d'Aumeries
Co-Development & Prog : Marc-Olivier Méhu
Technical & hardware support : Manuel Goepfert

Contact : metmap@orbifly.com




SOURCES & CREDITS :

   NOAA